Time;durP1;ratioP1;P1;durP2;ratioP2;P2;SDS_P1;SDS_P2;PMS_P1;PMS_P2;Temp;Humidity;BMP_temperature;BMP_pressure;BME280_temperature;BME280_humidity;BME280_pressure;Samples;Min_cycle;Max_cycle;Signal;HPM_P1;HPM_P2
2022/01/30 00:01:26;;;;;;;6.50;2.80;;;2.50;57.90;;;;;;5138776;27;20031;-33
2022/01/30 00:03:52;;;;;;;5.63;2.72;;;2.50;58.10;;;;;;5139295;27;20080;-36
2022/01/30 00:06:17;;;;;;;4.82;2.50;;;2.40;58.20;;;;;;5138792;27;20468;-39
2022/01/30 00:08:44;;;;;;;10.38;3.28;;;2.30;58.30;;;;;;5138787;27;20058;-42
2022/01/30 00:11:15;;;;;;;5.68;2.95;;;2.30;58.60;;;;;;5138589;27;20461;-32
2022/01/30 00:13:41;;;;;;;5.22;2.70;;;2.20;58.80;;;;;;5139156;27;20042;-32
2022/01/30 00:16:10;;;;;;;6.07;3.03;;;2.20;59.10;;;;;;5138546;27;20027;-42
2022/01/30 00:23:47;;;;;;;10.25;3.25;;;2.10;59.30;;;;;;5139032;27;20408;-42
2022/01/30 00:26:16;;;;;;;6.10;3.35;;;2.10;59.30;;;;;;5138820;27;20423;-42
2022/01/30 00:28:42;;;;;;;6.07;3.55;;;2.00;59.20;;;;;;5138959;27;20038;-42
2022/01/30 00:31:08;;;;;;;6.82;3.45;;;2.00;59.50;;;;;;5138270;27;20407;-43
2022/01/30 00:33:34;;;;;;;6.88;3.35;;;2.00;59.50;;;;;;5137777;27;20043;-42
2022/01/30 00:36:00;;;;;;;12.02;3.90;;;2.00;60.30;;;;;;5138197;27;20054;-43
2022/01/30 00:38:26;;;;;;;7.60;3.40;;;1.90;59.70;;;;;;5138521;27;20031;-42
2022/01/30 00:40:52;;;;;;;5.90;3.20;;;1.90;59.90;;;;;;5138442;27;20035;-33
2022/01/30 00:43:19;;;;;;;7.45;3.55;;;1.90;60.00;;;;;;5138343;27;20050;-42
2022/01/30 00:45:46;;;;;;;6.93;3.35;;;1.80;60.00;;;;;;5137953;27;20095;-34
2022/01/30 00:48:12;;;;;;;6.53;3.17;;;1.80;60.10;;;;;;5138154;27;20360;-32
2022/01/30 00:50:38;;;;;;;10.75;3.30;;;1.70;60.20;;;;;;5137944;27;20062;-34
2022/01/30 00:53:05;;;;;;;6.80;3.40;;;1.70;60.40;;;;;;5138251;27;20092;-42
2022/01/30 00:55:32;;;;;;;8.68;4.25;;;1.70;60.60;;;;;;5137745;27;20058;-43
2022/01/30 00:57:59;;;;;;;7.57;3.72;;;1.70;60.60;;;;;;5138011;27;20042;-34
2022/01/30 01:00:26;;;;;;;8.23;3.63;;;1.70;60.70;;;;;;5137953;27;20078;-42
2022/01/30 01:02:52;;;;;;;5.50;3.40;;;1.60;60.80;;;;;;5137888;27;20071;-33
2022/01/30 01:05:19;;;;;;;6.28;3.83;;;1.60;60.80;;;;;;5137627;27;20027;-44
2022/01/30 01:07:47;;;;;;;8.40;4.38;;;1.60;60.90;;;;;;5137554;27;20079;-42
2022/01/30 01:10:41;;;;;;;9.23;4.60;;;1.60;60.90;;;;;;5137801;27;20379;-33
2022/01/30 01:13:43;;;;;;;7.63;3.85;;;1.60;61.00;;;;;;5137480;27;20047;-42
2022/01/30 01:24:02;;;;;;;6.80;4.13;;;1.40;61.40;;;;;;5138025;27;20269;-32
2022/01/30 01:26:28;;;;;;;7.80;4.00;;;1.40;61.50;;;;;;5137464;27;20031;-32
2022/01/30 01:28:54;;;;;;;7.10;3.45;;;1.40;61.50;;;;;;5137885;27;20472;-32
2022/01/30 01:31:20;;;;;;;7.63;3.90;;;1.40;61.70;;;;;;5137142;27;20020;-42
2022/01/30 01:36:30;;;;;;;7.00;3.92;;;1.30;61.90;;;;;;5137338;27;20035;-33
2022/01/30 01:38:55;;;;;;;6.72;4.00;;;1.30;62.00;;;;;;5137688;27;20031;-43
2022/01/30 01:41:23;;;;;;;6.97;3.92;;;1.20;62.10;;;;;;5137107;27;20057;-42
2022/01/30 01:43:50;;;;;;;5.65;3.50;;;1.20;62.30;;;;;;5136809;27;20106;-33
2022/01/30 01:46:21;;;;;;;5.10;3.28;;;1.20;62.60;;;;;;5137243;27;20495;-42
2022/01/30 01:48:50;;;;;;;8.23;3.75;;;1.20;62.70;;;;;;5137562;27;20110;-33
2022/01/30 01:51:23;;;;;;;8.68;4.10;;;1.20;62.80;;;;;;5136946;27;20031;-43
2022/01/30 01:53:52;;;;;;;6.93;4.07;;;1.10;63.00;;;;;;5137516;27;20197;-33
2022/01/30 01:56:19;;;;;;;8.10;4.15;;;1.10;63.10;;;;;;5136809;27;20035;-43
2022/01/30 01:58:45;;;;;;;7.78;4.10;;;1.10;63.10;;;;;;5137359;28;20319;-33
2022/01/30 02:01:11;;;;;;;7.70;3.90;;;1.00;63.20;;;;;;5118511;28;20050;-34
2022/01/30 02:03:40;;;;;;;8.02;4.18;;;1.00;63.30;;;;;;5137287;28;20027;-42
2022/01/30 02:06:10;;;;;;;8.95;3.67;;;1.00;63.30;;;;;;5137038;28;20434;-43
2022/01/30 02:11:06;;;;;;;7.68;3.92;;;1.00;64.00;;;;;;5136751;28;20019;-37
2022/01/30 02:27:25;;;;;;;12.75;5.30;;;0.90;63.50;;;;;;5136980;28;20370;-42
2022/01/30 02:29:51;;;;;;;8.75;4.10;;;0.90;63.50;;;;;;5136751;28;20023;-32
2022/01/30 02:32:18;;;;;;;10.57;4.35;;;0.90;63.40;;;;;;5136770;28;20035;-32
2022/01/30 02:34:43;;;;;;;9.25;4.30;;;0.90;63.50;;;;;;5136397;28;20083;-34
2022/01/30 02:37:11;;;;;;;7.50;4.03;;;0.90;63.50;;;;;;5136607;28;20118;-32
2022/01/30 02:39:37;;;;;;;10.02;4.63;;;0.90;63.40;;;;;;5136806;28;20322;-41
2022/01/30 02:42:03;;;;;;;7.78;4.55;;;0.90;63.50;;;;;;5136919;28;20035;-43
2022/01/30 02:44:41;;;;;;;8.90;3.70;;;0.90;63.50;;;;;;5136410;28;20097;-33
2022/01/30 02:47:10;;;;;;;7.45;3.58;;;0.90;63.50;;;;;;5136925;28;20035;-42
2022/01/30 02:50:07;;;;;;;8.98;4.45;;;0.90;63.60;;;;;;5136291;28;20100;-33
2022/01/30 02:52:31;;;;;;;6.82;4.00;;;0.90;63.50;;;;;;5136453;28;20071;-43
2022/01/30 02:54:56;;;;;;;10.48;4.90;;;0.90;63.40;;;;;;5136267;28;20042;-34
2022/01/30 02:57:22;;;;;;;8.77;3.83;;;0.90;63.60;;;;;;5139174;27;20035;-43
2022/01/30 02:59:48;;;;;;;8.27;3.90;;;0.80;63.70;;;;;;5139785;27;20053;-36
2022/01/30 03:02:13;;;;;;;7.32;4.00;;;0.80;63.70;;;;;;5140159;27;20035;-43
2022/01/30 03:04:40;;;;;;;8.00;4.03;;;0.80;63.80;;;;;;5139833;27;20027;-43
2022/01/30 03:07:06;;;;;;;6.93;3.80;;;0.90;63.90;;;;;;5140397;27;20035;-32
2022/01/30 03:09:31;;;;;;;8.98;4.10;;;0.90;63.80;;;;;;5139608;27;20431;-33
2022/01/30 03:11:57;;;;;;;7.40;4.05;;;0.90;63.80;;;;;;5140098;27;20035;-32
2022/01/30 03:14:23;;;;;;;5.38;3.20;;;0.90;63.80;;;;;;5140149;27;20034;-43
2022/01/30 03:16:48;;;;;;;6.03;3.40;;;0.90;63.60;;;;;;5140027;27;20307;-33
2022/01/30 03:19:14;;;;;;;5.80;3.20;;;1.00;63.80;;;;;;5139709;27;20034;-36
2022/01/30 03:21:40;;;;;;;6.75;3.20;;;1.00;63.80;;;;;;5139966;27;20027;-33
2022/01/30 03:24:05;;;;;;;5.88;3.70;;;1.00;63.60;;;;;;5140005;27;20403;-33
2022/01/30 03:26:37;;;;;;;7.03;3.17;;;1.00;63.40;;;;;;5139658;27;20015;-35
2022/01/30 03:29:06;;;;;;;5.95;3.65;;;1.00;63.50;;;;;;5139730;27;20035;-33
2022/01/30 03:31:39;;;;;;;8.13;3.28;;;1.10;63.50;;;;;;5139693;27;20111;-33
2022/01/30 03:34:10;;;;;;;10.02;3.33;;;1.10;63.40;;;;;;5139612;27;20034;-32
2022/01/30 03:36:37;;;;;;;6.88;3.20;;;1.10;63.30;;;;;;5139307;27;20015;-43
2022/01/30 03:39:04;;;;;;;8.13;3.60;;;1.20;63.70;;;;;;5139505;27;20098;-33
2022/01/30 03:41:29;;;;;;;7.40;3.10;;;1.20;63.00;;;;;;5139180;27;20023;-43
2022/01/30 03:43:55;;;;;;;8.38;3.58;;;1.30;62.80;;;;;;5139781;27;20080;-32
2022/01/30 03:46:22;;;;;;;5.60;3.22;;;1.30;62.80;;;;;;5139177;27;20019;-43
2022/01/30 03:48:48;;;;;;;4.50;3.17;;;1.30;62.60;;;;;;5139653;27;20305;-33
2022/01/30 03:51:14;;;;;;;8.68;3.10;;;1.30;62.50;;;;;;5139392;27;20107;-34
2022/01/30 03:53:39;;;;;;;7.07;3.53;;;1.30;62.40;;;;;;5139066;27;20323;-43
2022/01/30 03:56:06;;;;;;;5.85;2.85;;;1.30;62.20;;;;;;5138967;27;20023;-34
2022/01/30 03:58:33;;;;;;;7.22;3.25;;;1.40;62.00;;;;;;5139367;27;20319;-33
2022/01/30 04:00:58;;;;;;;5.70;2.90;;;1.40;62.00;;;;;;5138741;27;20033;-33
2022/01/30 04:03:24;;;;;;;6.35;3.20;;;1.40;61.60;;;;;;5138686;27;20035;-33
2022/01/30 04:05:50;;;;;;;7.85;3.33;;;1.40;61.70;;;;;;5139000;27;20043;-35
2022/01/30 04:08:16;;;;;;;5.68;3.35;;;1.40;61.70;;;;;;5138506;27;20080;-42
2022/01/30 04:10:43;;;;;;;5.88;2.67;;;1.50;62.10;;;;;;5138482;27;20047;-44
2022/01/30 04:13:09;;;;;;;10.75;3.33;;;1.50;61.60;;;;;;5138942;27;20070;-43
2022/01/30 04:15:35;;;;;;;5.35;2.72;;;1.50;61.50;;;;;;5138404;27;20031;-33
2022/01/30 04:18:01;;;;;;;7.90;3.35;;;1.50;61.30;;;;;;5138873;27;20031;-39
2022/01/30 04:20:28;;;;;;;11.48;3.67;;;1.50;61.00;;;;;;5138731;27;20023;-32
2022/01/30 04:22:54;;;;;;;7.95;2.95;;;1.60;60.70;;;;;;5138722;27;20110;-32
2022/01/30 04:25:20;;;;;;;6.35;3.70;;;1.60;60.60;;;;;;5138637;27;20488;-41
2022/01/30 04:27:46;;;;;;;7.82;3.65;;;1.50;60.80;;;;;;5138757;27;20030;-43
2022/01/30 04:30:12;;;;;;;6.40;3.22;;;1.50;60.70;;;;;;5120132;27;20023;-32
2022/01/30 04:32:42;;;;;;;5.35;2.70;;;1.50;60.70;;;;;;5138775;27;20031;-42
2022/01/30 04:35:13;;;;;;;8.20;3.53;;;1.50;60.90;;;;;;5138593;27;20031;-32
2022/01/30 04:40:43;;;;;;;16.40;3.97;;;1.40;61.00;;;;;;5138234;27;20361;-32
2022/01/30 05:02:06;;;;;;;6.00;2.63;;;1.20;61.70;;;;;;5138259;27;20083;-42
2022/01/30 05:04:51;;;;;;;7.43;2.92;;;1.20;61.50;;;;;;5137760;27;20106;-34
2022/01/30 05:09:43;;;;;;;6.50;2.85;;;1.20;61.80;;;;;;5137711;27;20027;-43
2022/01/30 05:12:11;;;;;;;9.40;3.35;;;1.30;61.80;;;;;;5137905;27;20035;-42
2022/01/30 05:14:37;;;;;;;5.65;3.13;;;1.30;61.70;;;;;;5137570;27;20027;-33
2022/01/30 05:17:06;;;;;;;6.20;2.65;;;1.30;61.70;;;;;;5137779;27;20043;-33
2022/01/30 05:19:32;;;;;;;7.90;3.95;;;1.30;61.40;;;;;;5136581;27;20035;-43
2022/01/30 05:21:58;;;;;;;5.47;2.95;;;1.30;61.30;;;;;;5137592;27;20078;-42
2022/01/30 05:24:24;;;;;;;5.32;2.88;;;1.30;61.70;;;;;;5137415;27;20051;-42
2022/01/30 05:26:51;;;;;;;8.02;3.35;;;1.30;61.70;;;;;;5137369;27;20035;-33
2022/01/30 05:29:17;;;;;;;6.30;3.40;;;1.30;61.60;;;;;;5137197;27;20076;-44
2022/01/30 05:31:44;;;;;;;6.10;3.15;;;1.30;61.50;;;;;;5137106;27;20058;-42
2022/01/30 05:34:10;;;;;;;6.68;3.10;;;1.40;61.60;;;;;;5137470;27;20407;-42
2022/01/30 05:36:38;;;;;;;7.10;3.20;;;1.40;61.70;;;;;;5137012;27;20019;-43
2022/01/30 05:39:05;;;;;;;22.63;12.90;;;1.40;61.80;;;;;;5137534;27;20114;-33
2022/01/30 05:41:32;;;;;;;8.52;3.08;;;1.40;61.70;;;;;;5137111;27;20031;-34
2022/01/30 05:44:10;;;;;;;5.07;3.00;;;1.50;61.70;;;;;;5137395;27;20172;-33
2022/01/30 05:46:57;;;;;;;6.18;3.13;;;1.50;61.60;;;;;;5136676;27;20024;-43
2022/01/30 05:49:23;;;;;;;5.63;3.03;;;1.50;61.80;;;;;;5136443;27;20042;-32
2022/01/30 05:51:49;;;;;;;5.90;3.08;;;1.50;62.00;;;;;;5118819;27;20156;-32
2022/01/30 05:54:14;;;;;;;5.47;2.97;;;1.50;62.80;;;;;;5136818;27;20383;-44
2022/01/30 05:56:40;;;;;;;7.00;3.08;;;1.50;63.40;;;;;;5136244;27;20079;-44
2022/01/30 05:59:05;;;;;;;5.03;3.13;;;1.40;63.90;;;;;;5136948;27;20404;-33
2022/01/30 06:01:31;;;;;;;6.00;3.60;;;1.40;64.40;;;;;;5136802;28;20038;-45
2022/01/30 06:03:57;;;;;;;5.93;2.90;;;1.30;64.70;;;;;;5137203;28;20046;-42
2022/01/30 06:06:23;;;;;;;6.93;3.70;;;1.30;65.10;;;;;;5136746;28;20034;-42
2022/01/30 06:09:30;;;;;;;7.18;3.30;;;1.20;65.70;;;;;;5136726;28;20062;-33
2022/01/30 06:11:37;;;;;;;5.80;2.97;;;1.20;66.30;;;;;;5127947;28;20039;-33
2022/01/30 06:14:03;;;;;;;9.70;3.47;;;1.10;67.00;;;;;;5137084;28;20031;-36
2022/01/30 06:16:28;;;;;;;7.55;2.90;;;1.00;67.70;;;;;;5136845;28;20031;-34
2022/01/30 06:18:54;;;;;;;6.57;3.33;;;1.00;68.10;;;;;;5137089;28;20366;-32
2022/01/30 06:21:19;;;;;;;7.85;3.30;;;0.90;68.20;;;;;;5136554;28;20035;-42
2022/01/30 06:23:45;;;;;;;7.70;3.15;;;0.90;68.60;;;;;;5136909;28;20076;-42
2022/01/30 06:26:11;;;;;;;6.30;3.25;;;0.90;69.20;;;;;;5136482;28;20023;-43
2022/01/30 06:28:36;;;;;;;10.77;5.00;;;0.90;68.60;;;;;;5137155;28;20399;-43
2022/01/30 06:31:02;;;;;;;13.43;5.90;;;0.90;68.60;;;;;;5137081;27;20090;-35
2022/01/30 06:33:28;;;;;;;8.15;4.43;;;0.80;69.80;;;;;;5140846;27;20399;-43
2022/01/30 06:35:53;;;;;;;10.45;3.88;;;0.80;70.00;;;;;;5140244;27;20122;-35
2022/01/30 06:38:19;;;;;;;7.05;3.72;;;0.80;70.60;;;;;;5140542;27;20046;-43
2022/01/30 06:40:44;;;;;;;11.77;5.38;;;0.80;71.50;;;;;;5140448;27;20034;-32
2022/01/30 06:43:10;;;;;;;12.13;3.40;;;0.80;72.40;;;;;;5140669;27;20433;-32
2022/01/30 06:45:36;;;;;;;9.40;5.25;;;0.70;73.40;;;;;;5139735;27;20088;-34
2022/01/30 06:48:01;;;;;;;6.65;3.17;;;0.60;74.10;;;;;;5140256;27;20031;-42
2022/01/30 06:50:27;;;;;;;6.97;3.33;;;0.60;75.00;;;;;;5139870;27;20403;-43
2022/01/30 06:52:53;;;;;;;19.10;7.45;;;0.50;75.90;;;;;;5140178;27;20069;-33
2022/01/30 06:55:19;;;;;;;8.40;3.88;;;0.40;76.60;;;;;;5139981;27;20047;-33
2022/01/30 06:57:46;;;;;;;8.45;3.90;;;0.30;77.10;;;;;;5139719;27;20035;-42
2022/01/30 07:00:12;;;;;;;8.85;3.17;;;0.30;77.10;;;;;;5139980;27;20303;-43
2022/01/30 07:02:38;;;;;;;7.05;3.88;;;0.30;77.80;;;;;;5139911;27;20471;-33
2022/01/30 07:05:04;;;;;;;6.00;3.40;;;0.20;78.20;;;;;;5139660;27;20107;-42
2022/01/30 07:07:30;;;;;;;6.55;3.97;;;0.20;79.10;;;;;;5139644;27;20043;-42
2022/01/30 07:09:56;;;;;;;7.88;3.90;;;0.10;79.70;;;;;;5139716;27;20031;-44
2022/01/30 07:12:22;;;;;;;7.60;4.00;;;0.10;80.30;;;;;;5139811;27;20091;-42
2022/01/30 07:14:47;;;;;;;9.65;3.88;;;0.10;81.00;;;;;;5139298;27;20035;-33
2022/01/30 07:17:13;;;;;;;7.78;3.75;;;0.00;81.60;;;;;;5139888;27;20038;-33
2022/01/30 07:19:39;;;;;;;13.13;3.92;;;0.00;82.20;;;;;;5139132;27;20084;-33
2022/01/30 07:22:04;;;;;;;7.93;4.25;;;0.00;82.80;;;;;;5137103;27;20031;-44
2022/01/30 07:24:30;;;;;;;5.88;3.45;;;0.00;84.00;;;;;;5139027;27;20031;-43
2022/01/30 07:26:56;;;;;;;8.30;4.38;;;-0.10;85.00;;;;;;5139009;27;20027;-44
2022/01/30 07:29:22;;;;;;;9.48;4.28;;;-0.20;85.40;;;;;;5138856;27;20019;-32
2022/01/30 07:31:47;;;;;;;6.88;4.15;;;-0.20;85.70;;;;;;5139223;27;20031;-33
2022/01/30 07:34:13;;;;;;;9.40;4.32;;;-0.20;86.10;;;;;;5139220;27;20303;-32
2022/01/30 07:36:39;;;;;;;10.13;4.07;;;-0.20;86.20;;;;;;5139023;27;20084;-32
2022/01/30 07:39:07;;;;;;;8.07;4.30;;;-0.20;86.40;;;;;;5139342;27;20031;-42
2022/01/30 07:41:33;;;;;;;8.70;4.35;;;-0.20;86.60;;;;;;5138259;27;20062;-42
2022/01/30 07:44:03;;;;;;;20.58;7.75;;;-0.10;86.50;;;;;;5138815;27;20035;-32
2022/01/30 07:46:30;;;;;;;14.82;7.82;;;-0.10;86.30;;;;;;5138737;27;20030;-42
2022/01/30 07:48:56;;;;;;;9.50;4.55;;;0.00;86.20;;;;;;5139318;27;20372;-32
2022/01/30 07:51:22;;;;;;;8.70;4.57;;;0.00;86.10;;;;;;5138720;27;20349;-43
2022/01/30 07:53:47;;;;;;;11.93;4.82;;;0.00;86.00;;;;;;5139155;27;20168;-43
2022/01/30 07:56:13;;;;;;;7.43;4.30;;;0.10;86.10;;;;;;5138886;27;20036;-33
2022/01/30 07:58:39;;;;;;;9.02;4.05;;;0.10;85.80;;;;;;5139061;27;20042;-42
2022/01/30 08:01:05;;;;;;;9.27;5.15;;;0.10;85.50;;;;;;5138628;27;20023;-41
2022/01/30 08:03:31;;;;;;;14.10;4.38;;;0.20;85.20;;;;;;5139134;27;20152;-42
2022/01/30 08:05:57;;;;;;;12.77;5.65;;;0.20;85.20;;;;;;5138781;27;20065;-32
2022/01/30 08:08:23;;;;;;;10.55;5.00;;;0.20;85.20;;;;;;5138520;27;20039;-32
2022/01/30 08:10:49;;;;;;;10.20;4.88;;;0.20;85.10;;;;;;5138159;27;20022;-42
2022/01/30 08:13:16;;;;;;;9.45;4.28;;;0.20;84.90;;;;;;5138174;27;20076;-42
2022/01/30 08:15:42;;;;;;;9.27;4.68;;;0.30;84.60;;;;;;5138148;27;20045;-32
2022/01/30 08:18:08;;;;;;;9.57;5.13;;;0.30;84.60;;;;;;5138548;27;20088;-33
2022/01/30 08:20:34;;;;;;;12.05;5.07;;;0.30;84.60;;;;;;5138175;27;20019;-32
2022/01/30 08:23:01;;;;;;;12.10;4.65;;;0.30;84.60;;;;;;5120382;27;20357;-42
2022/01/30 08:25:26;;;;;;;7.60;4.20;;;0.30;84.70;;;;;;5138094;27;20020;-42
2022/01/30 08:27:53;;;;;;;10.15;4.63;;;0.40;84.80;;;;;;5137750;27;20408;-33
2022/01/30 08:30:20;;;;;;;7.10;4.57;;;0.40;84.80;;;;;;5138371;27;20475;-34
2022/01/30 08:32:49;;;;;;;8.45;4.20;;;0.40;84.90;;;;;;5138302;27;20032;-33
2022/01/30 08:35:16;;;;;;;11.48;5.70;;;0.50;84.80;;;;;;5138363;27;20122;-33
2022/01/30 08:37:42;;;;;;;9.63;4.90;;;0.50;84.50;;;;;;5138297;27;20038;-32
2022/01/30 08:40:14;;;;;;;8.50;4.85;;;0.60;84.40;;;;;;5138134;27;20407;-42
2022/01/30 08:42:41;;;;;;;10.73;5.20;;;0.60;84.10;;;;;;5138153;27;20138;-36
2022/01/30 08:45:10;;;;;;;12.85;5.43;;;0.60;84.10;;;;;;5138039;27;20122;-32
2022/01/30 08:47:36;;;;;;;11.07;4.80;;;0.60;83.90;;;;;;5137879;27;20105;-42
2022/01/30 08:50:04;;;;;;;7.85;4.95;;;0.70;83.90;;;;;;5138187;27;20019;-34
2022/01/30 08:52:30;;;;;;;8.80;4.88;;;0.70;83.90;;;;;;5138083;27;20284;-32
2022/01/30 08:54:55;;;;;;;8.18;4.88;;;0.70;84.00;;;;;;5136507;27;20033;-32
2022/01/30 08:57:21;;;;;;;9.40;4.90;;;0.70;84.00;;;;;;5137291;27;20042;-32
2022/01/30 08:59:47;;;;;;;9.38;5.35;;;0.80;84.30;;;;;;5137712;27;20022;-43
2022/01/30 09:02:13;;;;;;;11.38;6.20;;;0.80;84.80;;;;;;5137678;27;20027;-32
2022/01/30 09:04:38;;;;;;;9.45;5.13;;;0.80;85.60;;;;;;5137158;27;20023;-31
2022/01/30 09:07:05;;;;;;;13.27;5.50;;;0.70;86.90;;;;;;5137559;27;20349;-42
2022/01/30 09:09:30;;;;;;;11.85;6.22;;;0.70;87.50;;;;;;5137089;27;20043;-32
2022/01/30 09:11:58;;;;;;;11.07;6.22;;;0.70;88.10;;;;;;5137320;27;20080;-42
2022/01/30 09:14:25;;;;;;;15.18;6.82;;;0.70;88.60;;;;;;5137181;27;20027;-43
2022/01/30 09:16:50;;;;;;;14.85;6.45;;;0.70;88.90;;;;;;5137479;27;20050;-32
2022/01/30 09:19:16;;;;;;;13.98;6.38;;;0.70;89.40;;;;;;5137411;27;20046;-43
2022/01/30 09:21:42;;;;;;;17.27;8.07;;;0.70;89.50;;;;;;5137372;27;20250;-32
2022/01/30 09:24:07;;;;;;;14.80;6.30;;;0.70;89.50;;;;;;5137146;27;20110;-43
2022/01/30 09:26:33;;;;;;;16.88;7.32;;;0.70;90.00;;;;;;5136848;27;20019;-43
2022/01/30 09:28:59;;;;;;;17.23;7.78;;;0.70;90.00;;;;;;5137739;27;20031;-43
2022/01/30 09:31:24;;;;;;;13.85;7.82;;;0.80;90.10;;;;;;5136887;27;20043;-39
2022/01/30 09:33:51;;;;;;;18.33;7.82;;;0.80;90.50;;;;;;5137347;27;20084;-42
2022/01/30 09:36:16;;;;;;;14.65;7.65;;;0.80;90.30;;;;;;5136780;27;20027;-43
2022/01/30 09:38:42;;;;;;;12.43;6.93;;;0.80;90.30;;;;;;5137269;27;20315;-41
2022/01/30 09:41:12;;;;;;;13.13;7.20;;;0.80;90.20;;;;;;5136713;27;20403;-42
2022/01/30 09:43:38;;;;;;;11.20;6.53;;;0.90;90.20;;;;;;5137188;27;20028;-42
2022/01/30 09:46:05;;;;;;;11.75;6.50;;;0.90;90.20;;;;;;5137061;27;20320;-42
2022/01/30 09:48:37;;;;;;;10.23;5.97;;;0.90;90.00;;;;;;5137309;27;20023;-33
2022/01/30 09:51:06;;;;;;;10.80;5.72;;;0.90;90.10;;;;;;5136996;27;20311;-42
2022/01/30 09:53:33;;;;;;;12.18;5.80;;;0.90;90.20;;;;;;5118637;27;20601;-32
2022/01/30 09:55:59;;;;;;;9.40;5.65;;;0.90;90.10;;;;;;5136655;27;20071;-41
2022/01/30 09:58:24;;;;;;;10.77;6.22;;;1.00;90.10;;;;;;5136975;27;20076;-41
2022/01/30 10:00:50;;;;;;;10.95;6.68;;;1.00;90.10;;;;;;5136606;27;20026;-42
2022/01/30 10:03:23;;;;;;;10.70;5.95;;;1.10;90.10;;;;;;5136938;28;20038;-32
2022/01/30 10:06:02;;;;;;;10.32;6.63;;;1.10;90.00;;;;;;5140380;27;20038;-31
2022/01/30 10:08:28;;;;;;;10.15;5.85;;;1.20;89.70;;;;;;5143485;27;20074;-33
2022/01/30 10:11:16;;;;;;;18.17;7.72;;;1.20;89.80;;;;;;5143398;27;20019;-34
2022/01/30 10:13:42;;;;;;;11.48;6.47;;;1.20;89.50;;;;;;5143906;27;20059;-32
2022/01/30 10:16:08;;;;;;;15.10;7.53;;;1.20;89.50;;;;;;5143218;27;20023;-42
2022/01/30 10:18:43;;;;;;;20.48;8.20;;;1.20;90.00;;;;;;5143669;27;20031;-33
2022/01/30 10:21:21;;;;;;;26.63;10.40;;;1.20;89.30;;;;;;5143237;27;20304;-33
2022/01/30 10:23:47;;;;;;;24.70;11.10;;;1.30;89.10;;;;;;5125395;27;20039;-33
2022/01/30 10:26:18;;;;;;;22.45;9.45;;;1.30;89.30;;;;;;5143503;27;20465;-33
2022/01/30 10:28:43;;;;;;;;;;;1.30;89.40;;;;;;5144274;27;20031;-42
2022/01/30 10:31:10;;;;;;;15.98;7.57;;;1.30;89.40;;;;;;5143527;27;19907;-42
2022/01/30 10:33:39;;;;;;;17.38;8.40;;;1.30;89.00;;;;;;5143620;27;20114;-43
2022/01/30 10:36:08;;;;;;;14.25;6.65;;;1.30;89.00;;;;;;5142954;27;20023;-36
2022/01/30 10:38:40;;;;;;;14.55;8.00;;;1.30;89.30;;;;;;5143503;27;20035;-43
2022/01/30 10:43:57;;;;;;;29.45;10.70;;;1.40;89.30;;;;;;5143493;27;20053;-34
2022/01/30 10:46:29;;;;;;;27.73;10.80;;;1.40;88.90;;;;;;5142868;27;20015;-33
2022/01/30 10:49:03;;;;;;;39.40;16.48;;;1.50;89.10;;;;;;5143351;27;20041;-33
2022/01/30 10:51:31;;;;;;;30.98;12.02;;;1.50;88.80;;;;;;5142704;27;20019;-43
2022/01/30 10:54:04;;;;;;;29.35;11.63;;;1.60;88.80;;;;;;5143484;27;20037;-43
2022/01/30 10:56:30;;;;;;;21.92;9.93;;;1.70;88.80;;;;;;5142875;27;20387;-32
2022/01/30 10:59:16;;;;;;;20.17;9.50;;;1.70;88.50;;;;;;5143471;27;20066;-43
2022/01/30 11:01:46;;;;;;;30.38;10.73;;;1.80;88.10;;;;;;5142740;27;20114;-32
2022/01/30 11:04:30;;;;;;;19.42;9.05;;;1.90;88.10;;;;;;5143293;27;20111;-33
2022/01/30 11:06:59;;;;;;;13.30;7.57;;;1.90;87.60;;;;;;5143094;27;20084;-35
2022/01/30 11:09:29;;;;;;;17.90;8.65;;;2.00;87.50;;;;;;5142630;27;20131;-34
2022/01/30 11:12:06;;;;;;;11.45;7.45;;;2.00;87.20;;;;;;5143101;27;20039;-35
2022/01/30 11:17:03;;;;;;;11.35;6.35;;;2.20;86.70;;;;;;5140964;27;20035;-35
2022/01/30 11:19:35;;;;;;;13.00;6.40;;;2.20;86.10;;;;;;5139525;27;20034;-39
2022/01/30 11:22:05;;;;;;;13.15;6.18;;;2.20;86.10;;;;;;5139783;27;20058;-43
2022/01/30 11:24:37;;;;;;;12.98;6.55;;;2.20;86.00;;;;;;5139630;27;20023;-42
2022/01/30 11:27:04;;;;;;;10.43;6.25;;;2.20;85.80;;;;;;5139829;27;20032;-35
2022/01/30 11:29:34;;;;;;;15.88;8.10;;;2.20;85.50;;;;;;5139363;27;20028;-34
2022/01/30 11:32:00;;;;;;;12.95;7.50;;;2.20;85.60;;;;;;5139389;27;20027;-33
2022/01/30 11:34:27;;;;;;;17.05;9.05;;;2.20;85.70;;;;;;5139135;27;20034;-43
2022/01/30 11:36:54;;;;;;;18.77;9.00;;;2.30;85.90;;;;;;5139547;27;20031;-34
2022/01/30 11:39:20;;;;;;;20.27;10.77;;;2.30;85.80;;;;;;5139045;27;20113;-43
2022/01/30 11:42:08;;;;;;;15.27;8.38;;;2.40;85.80;;;;;;5139154;27;20426;-43
2022/01/30 11:44:34;;;;;;;16.75;9.13;;;2.40;85.50;;;;;;5139019;27;20180;-44
2022/01/30 11:47:03;;;;;;;15.45;8.38;;;2.50;85.60;;;;;;5139162;27;20031;-43
2022/01/30 11:49:48;;;;;;;13.10;8.02;;;2.60;85.50;;;;;;5139251;27;20026;-44
2022/01/30 11:52:15;;;;;;;13.20;8.02;;;2.70;84.90;;;;;;5139069;27;20039;-44
2022/01/30 11:54:50;;;;;;;10.73;6.53;;;2.80;84.90;;;;;;5139016;27;20054;-35
2022/01/30 11:57:18;;;;;;;13.45;6.50;;;2.80;84.10;;;;;;5139193;27;20062;-35
2022/01/30 11:59:45;;;;;;;10.35;6.55;;;2.90;83.80;;;;;;5138548;27;20035;-44
2022/01/30 12:02:25;;;;;;;10.60;6.93;;;2.90;84.20;;;;;;5139104;27;20091;-42
2022/01/30 12:04:59;;;;;;;12.07;6.20;;;3.00;83.80;;;;;;5138719;27;20031;-43
2022/01/30 12:07:37;;;;;;;11.07;6.82;;;3.10;83.20;;;;;;5138551;27;20038;-33
2022/01/30 12:10:21;;;;;;;11.05;6.80;;;3.10;83.20;;;;;;5138656;27;20015;-34
2022/01/30 12:12:52;;;;;;;15.73;6.90;;;3.20;83.10;;;;;;5138874;27;20038;-33
2022/01/30 12:15:41;;;;;;;13.82;6.80;;;3.30;83.30;;;;;;5138459;27;20077;-43
2022/01/30 12:18:37;;;;;;;12.57;7.38;;;3.30;82.80;;;;;;5138760;27;20030;-44
2022/01/30 12:21:11;;;;;;;12.68;7.18;;;3.40;82.40;;;;;;5138056;27;20035;-43
2022/01/30 12:23:42;;;;;;;15.20;7.65;;;3.50;81.80;;;;;;5138375;27;20096;-44
2022/01/30 12:26:10;;;;;;;13.55;7.13;;;3.50;81.60;;;;;;5138154;27;20015;-43
2022/01/30 12:28:50;;;;;;;12.10;6.40;;;3.60;80.60;;;;;;5137399;27;20035;-43
2022/01/30 12:31:30;;;;;;;16.00;7.50;;;3.50;79.60;;;;;;5138067;27;20466;-32
2022/01/30 12:34:16;;;;;;;16.42;8.07;;;3.40;79.60;;;;;;5138267;27;20039;-33
2022/01/30 12:36:52;;;;;;;22.10;9.73;;;3.30;79.30;;;;;;5137885;27;20027;-34
2022/01/30 12:39:22;;;;;;;16.20;8.13;;;3.30;79.30;;;;;;5137982;27;20080;-32
2022/01/30 12:41:50;;;;;;;18.92;9.27;;;3.20;79.80;;;;;;5138062;27;20027;-43
2022/01/30 12:44:20;;;;;;;18.67;9.05;;;3.20;80.30;;;;;;5137719;27;20039;-44
2022/01/30 12:46:53;;;;;;;19.58;8.95;;;3.20;80.30;;;;;;5137766;27;20023;-42
2022/01/30 12:49:28;;;;;;;14.25;7.55;;;3.20;80.90;;;;;;5137934;27;20031;-43
2022/01/30 12:51:58;;;;;;;13.57;7.88;;;3.30;80.20;;;;;;5138044;27;20070;-43
2022/01/30 12:54:27;;;;;;;15.02;7.32;;;3.30;80.20;;;;;;5137801;27;20321;-42
2022/01/30 12:56:55;;;;;;;12.02;7.05;;;3.40;80.00;;;;;;5120114;27;20057;-33
2022/01/30 12:59:25;;;;;;;14.50;7.35;;;3.40;79.60;;;;;;5137515;27;20030;-33
2022/01/30 13:01:51;;;;;;;14.98;8.02;;;3.40;79.70;;;;;;5137748;27;20042;-43
2022/01/30 13:04:23;;;;;;;17.00;8.05;;;3.40;79.20;;;;;;5137209;27;20075;-43
2022/01/30 13:06:51;;;;;;;11.43;6.38;;;3.40;79.00;;;;;;5137471;27;20046;-43
2022/01/30 13:09:25;;;;;;;11.63;6.43;;;3.40;79.10;;;;;;5137331;27;20035;-43
2022/01/30 13:11:52;;;;;;;10.90;6.00;;;3.40;79.00;;;;;;5137573;27;20026;-43
2022/01/30 13:14:18;;;;;;;11.48;6.47;;;3.30;78.40;;;;;;5119046;27;20133;-44
2022/01/30 13:16:49;;;;;;;11.18;6.20;;;3.30;78.60;;;;;;5137192;27;20027;-34
2022/01/30 13:19:35;;;;;;;14.20;6.35;;;3.30;78.60;;;;;;5137142;27;20023;-33
2022/01/30 13:22:06;;;;;;;10.68;6.95;;;3.20;78.90;;;;;;5137406;27;20033;-44
2022/01/30 13:24:32;;;;;;;13.52;6.97;;;3.20;79.30;;;;;;5137004;27;20331;-33
2022/01/30 13:27:03;;;;;;;19.77;7.70;;;3.20;79.80;;;;;;5137121;27;20043;-37
2022/01/30 13:29:39;;;;;;;17.58;7.18;;;3.20;79.90;;;;;;5136814;27;20353;-44
2022/01/30 13:32:10;;;;;;;11.77;6.97;;;3.20;80.00;;;;;;5136950;27;20098;-43
2022/01/30 13:34:36;;;;;;;;;;;3.20;80.20;;;;;;5137131;27;20438;-33
2022/01/30 13:37:11;;;;;;;13.93;7.32;;;3.20;80.40;;;;;;5137232;27;19911;-43
2022/01/30 13:39:47;;;;;;;12.57;7.68;;;3.20;80.30;;;;;;5136360;27;20052;-32
2022/01/30 13:48:10;;;;;;;14.82;8.57;;;3.20;80.60;;;;;;5137225;27;20081;-43
2022/01/30 13:50:43;;;;;;;16.83;7.82;;;3.20;80.50;;;;;;5136752;27;20433;-34
2022/01/30 13:53:20;;;;;;;16.25;7.97;;;3.20;80.60;;;;;;5136831;27;20047;-42
2022/01/30 13:56:12;;;;;;;13.52;6.93;;;3.20;80.70;;;;;;5136435;27;20106;-43
2022/01/30 13:58:37;;;;;;;;;;;3.30;80.70;;;;;;5137348;27;20038;-33
2022/01/30 14:01:07;;;;;;;14.85;8.43;;;3.30;80.90;;;;;;5136777;27;19911;-32
2022/01/30 14:03:35;;;;;;;14.48;8.80;;;3.30;80.90;;;;;;5137021;27;20023;-43
2022/01/30 14:06:01;;;;;;;15.90;7.53;;;3.30;80.90;;;;;;5136351;28;20031;-44
2022/01/30 14:08:28;;;;;;;12.27;6.97;;;3.30;80.80;;;;;;5136626;28;20096;-34